Stations météo

réclame
Mon MeteoGroup
Korsvattnet, Suède (2221): Température de l'air & dewpoint: 14.01.2020 08:00:00 - 20.01.2020 08:00:00 (CET)Korsvattnet, Suède (2221): Vitesse du vent & gusts: 14.01.2020 08:00:00 - 20.01.2020 08:00:00 (CET)Korsvattnet, Suède (2221): Direction du vent: 14.01.2020 08:00:00 - 20.01.2020 08:00:00 (CET)Korsvattnet, Suède (2221): visibility: 14.01.2020 08:00:00 - 20.01.2020 08:00:00 (CET)Korsvattnet, Suède (2221): Quantités de précipitations: 14.01.2020 08:00:00 - 20.01.2020 08:00:00 (CET)
Date & Time tt [°C] td [°C] ff [km/h] ff [knt] fx [km/h] fx [knt] dd vv [km] rr [mm]
20.01.2020 08:00:00 1,6 1,4 32 18 58 31 W 3,1 2,0
20.01.2020 07:00:00 1,9 1,8 35 19 58 31 W 3,2 0,3
20.01.2020 06:00:00 1,5 1,4 35 19 58 32 W 9 -
20.01.2020 05:00:00 0,3 0,2 38 21 50 27 W 3,4 -
20.01.2020 04:00:00 0,0 -0,1 29 16 44 24 WSW 5 0,2
20.01.2020 03:00:00 -1,3 -1,4 14 8 24 13 SSW 1,5 0,5
20.01.2020 02:00:00 -1,8 -1,9 16 8 27 15 S 1,8 0,7
20.01.2020 01:00:00 -2,2 -2,3 16 9 37 20 SSW 1,4 0,7
20.01.2020 00:00:00 -2,4 -2,5 25 14 33 18 SW 0,6 0,7
19.01.2020 23:00:00 -2,5 -2,6 20 11 27 15 W 1,0 0,4
19.01.2020 22:00:00 -2,6 -2,7 19 10 29 16 W 2,6 0,0
19.01.2020 21:00:00 -2,3 -2,4 26 14 32 18 W 3,9 0,0
19.01.2020 20:00:00 -2,4 -2,5 32 18 50 27 W - 0,0
19.01.2020 19:00:00 -2,6 -2,7 33 18 46 25 W 4,9 0,0
19.01.2020 18:00:00 -2,5 -2,6 27 14 50 27 W 9 0,0
19.01.2020 17:00:00 -2,5 -2,6 23 12 58 31 W 6 0,0
19.01.2020 16:00:00 -2,3 -2,5 42 23 69 37 W 0,7 0,2
19.01.2020 15:00:00 -1,6 -1,7 40 22 59 32 W 0,7 0,1
19.01.2020 14:00:00 -1,2 -1,3 40 21 57 31 W 0,6 0,2
19.01.2020 13:00:00 -1,0 -1,1 44 24 63 34 W 0,6 0,1
19.01.2020 12:00:00 -0,8 -0,9 40 22 60 32 W 0,5 0,5
19.01.2020 11:00:00 -1,1 -1,2 37 20 56 31 W 0,3 0,5
19.01.2020 10:00:00 -0,9 -1,1 40 21 55 30 W 0,7 0,6
19.01.2020 09:00:00 -0,8 -0,9 28 15 50 27 W 0,5 1,6
19.01.2020 08:00:00 -0,5 -0,6 29 16 52 28 W 0,3 0,4
19.01.2020 07:00:00 -0,4 -0,5 35 19 50 27 W 1,3 0,8
19.01.2020 06:00:00 -0,2 -0,3 24 13 43 23 W 0,9 0,8
19.01.2020 05:00:00 -0,3 -0,4 24 13 40 22 W 0,4 1,6
19.01.2020 04:00:00 -0,5 -0,7 11 6 25 13 W 1,2 1,5
19.01.2020 03:00:00 -0,3 -0,4 20 11 31 17 W 2,5 0,1
19.01.2020 02:00:00 -0,7 -0,8 18 10 26 14 W 1,9 0,5
19.01.2020 01:00:00 -1,1 -1,2 12 6 30 16 WSW 3,4 0,1
19.01.2020 00:00:00 -1,2 -1,6 20 11 27 15 WSW 3,4 0,1
18.01.2020 23:00:00 -1,3 -1,9 8 5 13 7 W 2,3 0,0
18.01.2020 22:00:00 -1,0 -1,9 10 6 25 13 W 4,3 0,0
18.01.2020 21:00:00 -1,0 -2,7 15 8 26 14 W 50 0,0
18.01.2020 20:00:00 -1,2 -2,5 21 12 31 17 WNW 50 0,0
18.01.2020 19:00:00 -1,0 -3,4 22 12 32 17 NNW 50 0,0
18.01.2020 18:00:00 -4,1 -4,4 8 4 14 7 W 0,7 0,0
18.01.2020 17:00:00 -3,2 -3,3 4 2 10 5 NE 0,7 0,0
18.01.2020 16:00:00 -2,2 -2,3 6 3 9 5 NE 0,2 0,0
18.01.2020 15:00:00 -2,3 -2,4 3 2 5 3 WNW 0,7 0,0
18.01.2020 14:00:00 -2,0 -2,1 3 1 6 4 NNW 11 0,0
18.01.2020 13:00:00 -1,9 -2,0 4 2 - - NW 50 0,0
18.01.2020 12:00:00 -0,8 -0,9 0 0 6 3 N 1,2 0,0
18.01.2020 11:00:00 -1,0 -1,1 2 1 7 4 W 0,4 0,0
18.01.2020 10:00:00 -1,3 -1,5 5 3 8 4 SW 0,5 0,0
18.01.2020 09:00:00 -1,0 -1,1 2 1 12 6 NE 2,8 0,0
18.01.2020 08:00:00 -0,8 -0,9 8 4 11 6 ENE 0,6 0,0
18.01.2020 07:00:00 -0,8 -0,9 3 1 10 6 SE 0,4 0,0
18.01.2020 06:00:00 -0,9 -1,0 8 5 11 6 ENE 0,5 0,0
18.01.2020 05:00:00 -0,8 -1,1 4 2 10 5 SSE 50 0,0
18.01.2020 04:00:00 -0,6 -1,0 4 2 11 6 SE 50 0,0
18.01.2020 03:00:00 -0,4 -0,8 6 4 16 8 E 50 0,0
18.01.2020 02:00:00 -0,8 -1,2 8 4 15 8 ENE 50 0,0
18.01.2020 01:00:00 -1,1 -1,5 11 6 14 8 ENE 50 0,0
18.01.2020 00:00:00 -1,1 -2,1 5 3 15 8 NE 50 0,0
17.01.2020 23:00:00 -0,5 -1,3 9 5 14 8 NNE 50 0,0
17.01.2020 22:00:00 0,3 -1,0 8 4 16 9 NNE 50 0,1
17.01.2020 21:00:00 0,4 -0,6 10 6 14 7 NNE 14 0,1
17.01.2020 20:00:00 0,3 -1,0 4 2 9 5 NNE 50 0,0
17.01.2020 19:00:00 -0,9 -1,7 4 2 10 5 N 50 0,0
17.01.2020 18:00:00 -1,0 -1,4 2 1 13 7 NNE 50 0,0
17.01.2020 17:00:00 -1,8 -2,4 11 6 16 9 NNE 50 0,0
17.01.2020 16:00:00 -1,3 -1,7 14 8 17 9 NNE 39 0,0
17.01.2020 15:00:00 -1,7 -2,7 9 5 12 7 NNE 43 0,0
17.01.2020 14:00:00 -1,3 -2,1 6 3 10 6 NE 39 0,0
17.01.2020 13:00:00 -2,0 -2,8 5 3 8 5 NNE 44 0,0
17.01.2020 12:00:00 -2,1 -3,1 5 3 11 6 NE 17 0,1
17.01.2020 11:00:00 -2,0 -3,3 2 1 9 5 E 2,8 0,2
17.01.2020 10:00:00 -2,7 -4,3 8 4 10 5 NNE 6 0,0
17.01.2020 09:00:00 -2,9 -4,6 3 2 9 5 N 50 0,0
17.01.2020 08:00:00 -3,5 -5,2 5 3 14 8 E 50 0,0
17.01.2020 07:00:00 -2,0 -4,2 11 6 16 9 SE 50 0,0
17.01.2020 06:00:00 -3,4 -4,8 3 2 8 4 N 50 0,0
17.01.2020 05:00:00 -3,4 -4,8 2 1 13 7 N 50 0,0
17.01.2020 04:00:00 -1,5 -3,3 14 7 21 12 W 50 0,0
17.01.2020 03:00:00 -1,8 -3,2 13 7 24 13 WSW 50 0,0
17.01.2020 02:00:00 -2,0 -2,7 19 11 23 12 WSW 50 0,0
17.01.2020 01:00:00 -2,2 -2,9 11 6 28 15 W 46 0,0
17.01.2020 00:00:00 0,7 -0,3 20 11 42 23 W 43 0,0
16.01.2020 23:00:00 0,7 0,4 18 10 37 20 W 11 0,0
16.01.2020 22:00:00 0,3 0,2 19 10 39 21 WSW 3,7 0,1
16.01.2020 21:00:00 0,4 0,3 22 12 42 23 WSW 16 0,2
16.01.2020 20:00:00 0,4 0,3 27 15 47 26 WSW 8 0,1
16.01.2020 19:00:00 -0,1 -0,2 23 12 46 25 SW 12 0,1
16.01.2020 18:00:00 -0,4 -0,5 19 10 38 21 SW 2,0 0,5
16.01.2020 17:00:00 -0,4 -0,5 16 9 42 23 SW 3,4 0,1
16.01.2020 16:00:00 -1,0 -1,1 18 10 32 18 SW 2,7 0,1
16.01.2020 15:00:00 -1,0 -1,1 24 13 33 18 SW 1,9 0,6
16.01.2020 14:00:00 -1,2 -2,8 14 7 25 14 S 11 0,0
16.01.2020 13:00:00 -0,7 -3,7 11 6 23 12 WSW 50 -
16.01.2020 12:00:00 -0,3 -3,5 4 2 16 9 WSW 43 0,0
16.01.2020 11:00:00 -1,9 -4,1 12 7 25 13 SSW 19 0,1
16.01.2020 10:00:00 -3,3 -6,1 10 5 39 21 W 40 0,0
16.01.2020 09:00:00 -2,2 -5,0 20 11 30 16 WSW 50 0,0
16.01.2020 08:00:00 -2,4 -4,3 20 11 27 15 W 50 0,0
16.01.2020 07:00:00 -8,8 -10,6 9 5 20 11 NE 50 0,0
16.01.2020 06:00:00 -9,1 -10,4 12 6 19 10 NNE 50 0,0
16.01.2020 05:00:00 -11,7 -13,1 17 9 21 11 NNE 50 0,0
16.01.2020 04:00:00 -9,6 -11,5 9 5 13 7 NNE 50 0,0
16.01.2020 03:00:00 -8,2 -11,5 8 5 23 12 NNE 50 0,0
16.01.2020 02:00:00 -11,1 -12,3 15 8 22 12 NNE 50 0,0
16.01.2020 01:00:00 -9,5 -11,3 15 8 20 11 NNE 50 0,0
16.01.2020 00:00:00 -9,8 -11,3 15 8 19 10 NE 50 0,0
15.01.2020 23:00:00 -9,3 -11,2 14 7 15 8 NNE 50 0,0
15.01.2020 22:00:00 -8,3 -11,4 5 3 20 11 NNE 50 0,0
15.01.2020 21:00:00 -7,3 -9,4 4 2 16 9 SSW 50 0,0
15.01.2020 20:00:00 -8,1 -9,7 8 5 11 6 WNW 50 0,0
15.01.2020 19:00:00 -7,3 -10,3 5 3 23 12 NW 50 0,0
15.01.2020 18:00:00 -3,5 -5,5 21 11 25 14 W 50 0,0
15.01.2020 17:00:00 -3,2 -4,6 22 12 34 18 W 44 0,0
15.01.2020 16:00:00 -2,3 -3,5 16 9 32 18 W 39 0,0
15.01.2020 15:00:00 -0,8 -1,8 25 13 39 21 WNW 16 0,0
15.01.2020 14:00:00 -0,9 -1,3 22 12 40 21 W 5 0,1
15.01.2020 13:00:00 -1,7 -2,0 14 8 21 12 W 0,9 0,9
15.01.2020 12:00:00 -2,4 -2,7 6 3 10 5 SW 0,8 0,8
15.01.2020 11:00:00 -2,7 -3,0 8 4 12 7 SW 1,1 0,5
15.01.2020 10:00:00 -2,9 -3,1 12 7 16 9 SW 0,8 1,0
15.01.2020 09:00:00 -2,9 -3,2 6 4 12 6 SW 0,5 2,2
15.01.2020 08:00:00 -3,4 -3,8 3 1 9 5 SW 0,8 1,3
15.01.2020 07:00:00 -3,9 -4,3 5 3 12 7 W 1,2 0,9
15.01.2020 06:00:00 -4,3 -5,0 7 4 13 7 W 1,9 0,2
15.01.2020 05:00:00 -5,1 -6,8 4 2 13 7 SW 50 0,0
15.01.2020 04:00:00 -5,0 -7,0 8 5 15 8 NNE 50 0,0
15.01.2020 03:00:00 -4,3 -6,6 7 4 13 7 S 50 0,0
15.01.2020 02:00:00 -7,9 -10,0 10 5 18 10 NE 50 0,0
15.01.2020 01:00:00 -5,9 -8,0 9 5 26 14 NE 50 0,0
15.01.2020 00:00:00 -3,5 -6,3 19 10 25 14 WSW 50 0,0
14.01.2020 23:00:00 -4,9 -7,2 4 2 27 15 NW 50 0,0
14.01.2020 22:00:00 -2,5 -4,2 23 12 34 18 WSW 50 0,0
14.01.2020 21:00:00 -2,3 -3,1 22 12 34 18 W 50 0,0
14.01.2020 20:00:00 -1,9 -2,2 18 10 33 18 WSW 50 0,0
14.01.2020 19:00:00 -1,7 -1,8 16 9 26 14 WSW 10 0,2
14.01.2020 18:00:00 -3,5 -3,8 10 6 18 10 N 50 0,0
14.01.2020 17:00:00 -4,5 -4,9 5 3 10 6 ENE 0,1 0,0
14.01.2020 16:00:00 -2,6 -2,8 8 4 13 7 W 0,4 0,0
14.01.2020 15:00:00 -2,2 -2,3 12 6 21 12 SW 3,9 0,0
14.01.2020 14:00:00 -2,0 -2,1 15 8 26 14 SW 1,0 0,0
14.01.2020 13:00:00 -2,0 -2,1 15 8 32 18 SSW 0,7 0,6
14.01.2020 12:00:00 -2,1 -2,2 19 11 47 25 S 1,3 0,7
14.01.2020 11:00:00 -2,2 -2,3 24 13 44 24 S 2,2 0,0
14.01.2020 10:00:00 -2,6 -2,8 25 13 41 22 S 1,4 0,3
14.01.2020 09:00:00 -3,2 -3,5 18 10 30 16 S 1,7 0,2
14.01.2020 08:00:00 -4,0 -4,4 21 11 36 20 SSW 2,1 0,2

tt = Température de l'air
td = dewpoint
ff = Vitesse du vent
fx = gusts
dd = Direction du vent
vv = visibility
rr = Quantités de précipitations

stations d'obs. à proximité